createdAt,value
2023-02-02T00:00:06.827Z,1005.64
2023-02-02T00:01:06.796Z,1005.69
2023-02-02T00:02:06.835Z,1005.77
2023-02-02T00:03:06.858Z,1005.72
2023-02-02T00:04:06.759Z,1005.78
2023-02-02T00:05:06.655Z,1005.54
2023-02-02T00:06:06.609Z,1005.59
2023-02-02T00:07:06.617Z,1005.59
2023-02-02T00:08:06.584Z,1005.74
2023-02-02T00:09:06.505Z,1005.62
2023-02-02T00:10:06.520Z,1005.63
2023-02-02T00:11:06.461Z,1005.50
2023-02-02T00:12:06.409Z,1005.68
2023-02-02T00:13:06.372Z,1005.59
2023-02-02T00:14:06.370Z,1005.64
2023-02-02T00:15:06.267Z,1005.57
2023-02-02T00:16:06.247Z,1005.68
2023-02-02T00:17:06.201Z,1005.55
2023-02-02T00:18:06.170Z,1005.60
2023-02-02T00:19:06.131Z,1005.67
2023-02-02T00:20:06.210Z,1005.58
2023-02-02T00:21:06.072Z,1005.64
2023-02-02T00:22:06.003Z,1005.65
2023-02-02T00:23:05.971Z,1005.60
2023-02-02T00:24:06.031Z,1005.57
2023-02-02T00:25:05.896Z,1005.64
2023-02-02T00:26:05.923Z,1005.60
2023-02-02T00:27:05.850Z,1005.56
2023-02-02T00:28:05.808Z,1005.66
2023-02-02T00:29:05.748Z,1005.66
2023-02-02T00:30:05.757Z,1005.57
2023-02-02T00:31:05.686Z,1005.61
2023-02-02T00:32:05.712Z,1005.54
2023-02-02T00:33:05.707Z,1005.60
2023-02-02T00:34:05.571Z,1005.61
2023-02-02T00:35:05.563Z,1005.67
2023-02-02T00:36:05.515Z,1005.58
2023-02-02T00:37:05.462Z,1005.53
2023-02-02T00:38:05.492Z,1005.62
2023-02-02T00:39:05.395Z,1005.62
2023-02-02T00:40:05.359Z,1005.58
2023-02-02T00:41:05.358Z,1005.54
2023-02-02T00:42:05.279Z,1005.43
2023-02-02T00:43:05.252Z,1005.53
2023-02-02T00:44:05.262Z,1005.50
2023-02-02T00:45:05.187Z,1005.62
2023-02-02T00:46:05.167Z,1005.57
2023-02-02T00:47:05.155Z,1005.45
2023-02-02T00:48:05.080Z,1005.64
2023-02-02T00:49:05.017Z,1005.75
2023-02-02T00:50:05.045Z,1005.71
2023-02-02T00:51:05.002Z,1005.67
2023-02-02T00:52:04.916Z,1005.56
2023-02-02T00:53:04.873Z,1005.67
2023-02-02T00:54:04.847Z,1005.68
2023-02-02T00:55:04.799Z,1005.70
2023-02-02T00:56:04.811Z,1005.66
2023-02-02T00:57:04.736Z,1005.64
2023-02-02T00:58:04.731Z,1005.61
2023-02-02T00:59:04.665Z,1005.54
2023-02-02T01:00:04.615Z,1005.70
2023-02-02T01:01:04.685Z,1005.47
2023-02-02T01:02:04.635Z,1005.39
2023-02-02T01:03:04.604Z,1005.63
2023-02-02T01:04:04.488Z,1005.67
2023-02-02T01:05:04.435Z,1005.62
2023-02-02T01:06:04.391Z,1005.67
2023-02-02T01:07:05.129Z,1005.68
2023-02-02T01:08:04.346Z,1005.61
2023-02-02T01:09:04.285Z,1005.67
2023-02-02T01:10:04.249Z,1005.67
2023-02-02T01:11:04.209Z,1005.90
2023-02-02T01:12:04.238Z,1005.69
2023-02-02T01:13:04.147Z,1005.60
2023-02-02T01:14:04.112Z,1005.57
2023-02-02T01:15:04.128Z,1005.56
2023-02-02T01:16:04.082Z,1005.56
2023-02-02T01:17:04.024Z,1005.65
2023-02-02T01:18:04.035Z,1005.55
2023-02-02T01:19:03.948Z,1005.68
2023-02-02T01:20:03.890Z,1005.68
2023-02-02T01:21:03.857Z,1005.74
2023-02-02T01:22:03.818Z,1005.74
2023-02-02T01:23:03.838Z,1005.60
2023-02-02T01:24:03.823Z,1005.66
2023-02-02T01:25:03.701Z,1005.72
2023-02-02T01:26:03.684Z,1005.69
2023-02-02T01:27:03.655Z,1005.52
2023-02-02T01:28:03.598Z,1005.71
2023-02-02T01:29:03.603Z,1005.72
2023-02-02T01:30:03.524Z,1005.76
2023-02-02T01:31:03.514Z,1005.73
2023-02-02T01:32:04.236Z,1005.90
2023-02-02T01:33:03.419Z,1005.72
2023-02-02T01:34:03.435Z,1005.79
2023-02-02T01:35:03.402Z,1005.82
2023-02-02T01:36:03.303Z,1005.78
2023-02-02T01:37:03.264Z,1005.71
2023-02-02T01:38:03.240Z,1005.53
2023-02-02T01:39:03.192Z,1005.79
2023-02-02T01:40:03.225Z,1005.79
2023-02-02T01:41:03.189Z,1005.79
2023-02-02T01:42:03.085Z,1005.78
2023-02-02T01:43:03.048Z,1005.78
2023-02-02T01:44:03.011Z,1005.70
2023-02-02T01:45:03.040Z,1005.79
2023-02-02T01:46:03.027Z,1005.80
2023-02-02T01:47:02.893Z,1005.88
2023-02-02T01:48:02.861Z,1005.88
2023-02-02T01:49:02.867Z,1005.91
2023-02-02T01:50:02.852Z,1005.83
2023-02-02T01:51:02.755Z,1005.82
2023-02-02T01:52:02.718Z,1006.02
2023-02-02T01:53:02.681Z,1005.93
2023-02-02T01:54:02.652Z,1005.82
2023-02-02T01:55:03.181Z,1005.85
2023-02-02T01:56:02.569Z,1005.88
2023-02-02T01:57:02.545Z,1005.97
2023-02-02T01:58:02.669Z,1006.06
2023-02-02T01:59:02.461Z,1005.80
2023-02-02T02:00:02.427Z,1006.03
2023-02-02T02:01:02.504Z,1005.83
2023-02-02T02:02:02.390Z,1005.97
2023-02-02T02:03:02.322Z,1005.90
2023-02-02T02:04:02.295Z,1006.10
2023-02-02T02:05:02.240Z,1006.01
2023-02-02T02:06:02.298Z,1005.95
2023-02-02T02:07:02.237Z,1006.03
2023-02-02T02:08:02.143Z,1006.13
2023-02-02T02:09:02.100Z,1006.06
2023-02-02T02:10:02.093Z,1006.09
2023-02-02T02:11:02.027Z,1006.10
2023-02-02T02:12:01.989Z,1006.15
2023-02-02T02:13:02.116Z,1006.04
2023-02-02T02:14:01.926Z,1006.09
2023-02-02T02:15:02.688Z,1006.04
2023-02-02T02:16:01.971Z,1006.05
2023-02-02T02:17:01.806Z,1006.07
2023-02-02T02:18:01.766Z,1005.91
2023-02-02T02:19:01.739Z,1006.18
2023-02-02T02:20:11.190Z,1006.16
2023-02-02T02:21:01.672Z,1006.19
2023-02-02T02:22:01.680Z,1006.20
2023-02-02T02:23:01.590Z,1006.13
2023-02-02T02:24:01.560Z,1006.10
2023-02-02T02:25:01.517Z,1006.21
2023-02-02T02:26:01.529Z,1006.16
2023-02-02T02:27:01.443Z,1006.12
2023-02-02T02:28:01.468Z,1006.13
2023-02-02T02:29:01.386Z,1006.21
2023-02-02T02:30:01.325Z,1006.37
2023-02-02T02:31:01.393Z,1006.41
2023-02-02T02:32:01.258Z,1006.31
2023-02-02T02:33:01.391Z,1006.23
2023-02-02T02:34:01.263Z,1006.30
2023-02-02T02:35:01.171Z,1006.36
2023-02-02T02:36:01.113Z,1006.42
2023-02-02T02:37:01.078Z,1006.25
2023-02-02T02:38:01.045Z,1006.24
2023-02-02T02:39:00.999Z,1006.24
2023-02-02T02:40:01.073Z,1006.30
2023-02-02T02:41:00.925Z,1006.27
2023-02-02T02:42:00.941Z,1006.24
2023-02-02T02:43:00.896Z,1006.34
2023-02-02T02:44:00.820Z,1006.36
2023-02-02T02:45:00.848Z,1006.23
2023-02-02T02:46:00.761Z,1006.23
2023-02-02T02:47:00.718Z,1006.17
2023-02-02T02:48:00.685Z,1006.36
2023-02-02T02:49:00.644Z,1006.31
2023-02-02T02:50:00.733Z,1006.42
2023-02-02T02:51:00.564Z,1006.42
2023-02-02T02:52:00.524Z,1006.40
2023-02-02T02:53:00.500Z,1006.44
2023-02-02T02:54:00.458Z,1006.41
2023-02-02T02:55:00.430Z,1006.43
2023-02-02T02:56:00.440Z,1006.45
2023-02-02T02:57:00.340Z,1006.48
2023-02-02T02:58:00.306Z,1006.43
2023-02-02T02:59:00.278Z,1006.48
2023-02-02T03:00:00.266Z,1006.47
2023-02-02T03:01:00.255Z,1006.49
2023-02-02T03:02:00.250Z,1006.43
2023-02-02T03:03:00.133Z,1006.42
2023-02-02T03:04:00.102Z,1006.44
2023-02-02T03:05:00.070Z,1006.47
2023-02-02T03:06:00.011Z,1006.45
2023-02-02T03:07:00.120Z,1006.52
2023-02-02T03:08:00.022Z,1006.59
2023-02-02T03:08:59.953Z,1006.57
2023-02-02T03:09:59.886Z,1006.59
2023-02-02T03:10:59.888Z,1006.52
2023-02-02T03:11:59.852Z,1006.53
2023-02-02T03:13:06.601Z,1006.58
2023-02-02T03:13:59.785Z,1006.81
2023-02-02T03:14:59.737Z,1006.77
2023-02-02T03:15:59.753Z,1006.86
2023-02-02T03:16:59.643Z,1006.81
2023-02-02T03:17:59.656Z,1006.79
2023-02-02T03:18:59.552Z,1006.80
2023-02-02T03:19:59.518Z,1006.85
2023-02-02T03:20:59.477Z,1006.97
2023-02-02T03:21:59.444Z,1006.88
2023-02-02T03:22:59.464Z,1006.86
2023-02-02T03:23:59.387Z,1006.81
2023-02-02T03:24:59.351Z,1006.85
2023-02-02T03:25:59.303Z,1006.95
2023-02-02T03:26:59.259Z,1006.93
2023-02-02T03:27:59.213Z,1006.86
2023-02-02T03:28:59.244Z,1006.95
2023-02-02T03:29:59.138Z,1006.98
2023-02-02T03:30:59.182Z,1006.88
2023-02-02T03:31:59.065Z,1006.97
2023-02-02T03:32:59.042Z,1006.97
2023-02-02T03:33:59.017Z,1007.03
2023-02-02T03:34:59.177Z,1007.02
2023-02-02T03:35:58.920Z,1006.98
2023-02-02T03:36:58.882Z,1007.02
2023-02-02T03:37:58.864Z,1007.06
2023-02-02T03:38:58.813Z,1007.05
2023-02-02T03:39:59.604Z,1007.11
2023-02-02T03:40:58.896Z,1007.17
2023-02-02T03:41:58.714Z,1007.20
2023-02-02T03:42:58.668Z,1007.15
2023-02-02T03:43:58.660Z,1007.19
2023-02-02T03:44:58.594Z,1007.26
2023-02-02T03:45:58.633Z,1007.29
2023-02-02T03:46:58.528Z,1007.36
2023-02-02T03:47:58.484Z,1007.33
2023-02-02T03:48:58.450Z,1007.27
2023-02-02T03:49:58.412Z,1007.38
2023-02-02T03:50:58.376Z,1007.34
2023-02-02T03:51:58.454Z,1007.45
2023-02-02T03:52:58.296Z,1007.40
2023-02-02T03:53:58.258Z,1007.42
2023-02-02T03:54:58.387Z,1007.41
2023-02-02T03:55:58.188Z,1007.32
2023-02-02T03:56:58.149Z,1007.44
2023-02-02T03:57:58.174Z,1007.47
2023-02-02T03:58:58.092Z,1007.38
2023-02-02T03:59:58.041Z,1007.50
2023-02-02T04:00:58.008Z,1007.50
2023-02-02T04:01:58.013Z,1007.54
2023-02-02T04:02:57.987Z,1007.47
2023-02-02T04:03:57.945Z,1007.66
2023-02-02T04:04:57.851Z,1007.52
2023-02-02T04:05:57.823Z,1007.59
2023-02-02T04:06:57.785Z,1007.63
2023-02-02T04:07:57.781Z,1007.57
2023-02-02T04:08:57.826Z,1007.59
2023-02-02T04:09:57.672Z,1007.65
2023-02-02T04:10:57.641Z,1007.69
2023-02-02T04:11:57.603Z,1007.64
2023-02-02T04:12:57.562Z,1007.69
2023-02-02T04:13:57.526Z,1007.73
2023-02-02T04:14:57.566Z,1007.95
2023-02-02T04:15:57.486Z,1007.83
2023-02-02T04:16:57.409Z,1007.81
2023-02-02T04:17:57.397Z,1007.81
2023-02-02T04:18:57.339Z,1007.96
2023-02-02T04:19:57.319Z,1007.91
2023-02-02T04:20:57.324Z,1007.91
2023-02-02T04:21:57.244Z,1008.03
2023-02-02T04:22:57.196Z,1007.93
2023-02-02T04:23:57.157Z,1007.93
2023-02-02T04:24:57.121Z,1008.00
2023-02-02T04:25:57.157Z,1007.97
2023-02-02T04:26:57.320Z,1008.04
2023-02-02T04:27:57.015Z,1008.06
2023-02-02T04:28:56.968Z,1008.09
2023-02-02T04:29:56.942Z,1008.06
2023-02-02T04:30:56.961Z,1008.13
2023-02-02T04:31:57.051Z,1008.29
2023-02-02T04:32:56.901Z,1008.12
2023-02-02T04:33:56.794Z,1008.20
2023-02-02T04:34:56.757Z,1008.17
2023-02-02T04:35:56.780Z,1008.24
2023-02-02T04:36:56.677Z,1008.34
2023-02-02T04:37:56.639Z,1008.22
2023-02-02T04:38:56.610Z,1008.33
2023-02-02T04:39:56.584Z,1008.25
2023-02-02T04:40:56.531Z,1008.24
2023-02-02T04:41:56.797Z,1008.24
2023-02-02T04:42:56.527Z,1008.36
2023-02-02T04:43:56.423Z,1008.33
2023-02-02T04:44:56.387Z,1008.34
2023-02-02T04:45:56.488Z,1008.31
2023-02-02T04:46:56.318Z,1008.36
2023-02-02T04:47:56.349Z,1008.36
2023-02-02T04:48:56.311Z,1008.34
2023-02-02T04:49:56.204Z,1008.40
2023-02-02T04:50:56.171Z,1008.41
2023-02-02T04:51:56.134Z,1008.37
2023-02-02T04:52:56.100Z,1008.39
2023-02-02T04:53:56.113Z,1008.52
2023-02-02T04:54:56.053Z,1008.48
2023-02-02T04:55:56.000Z,1008.42
2023-02-02T04:56:55.946Z,1008.39
2023-02-02T04:57:55.988Z,1008.44
2023-02-02T04:58:55.873Z,1008.49
2023-02-02T04:59:55.957Z,1008.51
2023-02-02T05:00:55.859Z,1008.46
2023-02-02T05:01:55.754Z,1008.48
2023-02-02T05:02:55.781Z,1008.52
2023-02-02T05:03:55.708Z,1008.54
2023-02-02T05:04:55.644Z,1008.52
2023-02-02T05:05:55.700Z,1008.55
2023-02-02T05:06:55.586Z,1008.55
2023-02-02T05:07:55.538Z,1008.65
2023-02-02T05:08:55.582Z,1008.65
2023-02-02T05:09:55.462Z,1008.66
2023-02-02T05:10:55.441Z,1008.70
2023-02-02T05:11:55.394Z,1008.68
2023-02-02T05:12:55.358Z,1008.65
2023-02-02T05:13:55.324Z,1008.77
2023-02-02T05:14:55.361Z,1008.74
2023-02-02T05:15:55.262Z,1008.74
2023-02-02T05:16:55.335Z,1008.88
2023-02-02T05:17:55.176Z,1008.82
2023-02-02T05:18:55.144Z,1008.85
2023-02-02T05:19:55.100Z,1008.87
2023-02-02T05:20:55.126Z,1008.85
2023-02-02T05:21:55.028Z,1008.89
2023-02-02T05:22:54.997Z,1008.85
2023-02-02T05:23:54.957Z,1008.97
2023-02-02T05:24:54.931Z,1008.94
2023-02-02T05:25:54.937Z,1008.96
2023-02-02T05:26:54.880Z,1008.95
2023-02-02T05:27:54.801Z,1008.94
2023-02-02T05:28:54.772Z,1008.97
2023-02-02T05:29:54.730Z,1008.96
2023-02-02T05:30:54.844Z,1009.07
2023-02-02T05:31:54.774Z,1009.00
2023-02-02T05:32:54.623Z,1009.01
2023-02-02T05:33:54.619Z,1009.04
2023-02-02T05:34:54.550Z,1009.03
2023-02-02T05:35:54.509Z,1009.06
2023-02-02T05:36:54.543Z,1009.04
2023-02-02T05:37:54.450Z,1009.05
2023-02-02T05:38:54.405Z,1009.07
2023-02-02T05:39:54.368Z,1009.07
2023-02-02T05:40:54.437Z,1009.10
2023-02-02T05:41:54.295Z,1009.07
2023-02-02T05:42:54.315Z,1009.10
2023-02-02T05:43:54.224Z,1009.16
2023-02-02T05:44:54.179Z,1009.11
2023-02-02T05:45:54.202Z,1009.16
2023-02-02T05:46:54.118Z,1009.21
2023-02-02T05:47:54.077Z,1009.16
2023-02-02T05:48:54.115Z,1009.24
2023-02-02T05:49:54.007Z,1009.22
2023-02-02T05:50:54.011Z,1009.26
2023-02-02T05:51:53.991Z,1009.20
2023-02-02T05:52:53.887Z,1009.31
2023-02-02T05:53:53.859Z,1009.33
2023-02-02T05:54:53.907Z,1009.20
2023-02-02T05:55:53.789Z,1009.37
2023-02-02T05:56:53.777Z,1009.42
2023-02-02T05:57:53.728Z,1009.39
2023-02-02T05:58:53.687Z,1009.45
2023-02-02T05:59:53.643Z,1009.45
2023-02-02T06:00:56.282Z,1009.45
2023-02-02T06:01:53.556Z,1009.57
2023-02-02T06:02:53.652Z,1009.48
2023-02-02T06:03:53.627Z,1009.54
2023-02-02T06:04:53.450Z,1009.59
2023-02-02T06:05:53.427Z,1009.63
2023-02-02T06:06:53.430Z,1009.62
2023-02-02T06:07:53.437Z,1009.58
2023-02-02T06:08:53.311Z,1009.64
2023-02-02T06:09:53.286Z,1009.65
2023-02-02T06:10:53.244Z,1009.71
2023-02-02T06:11:53.262Z,1009.66
2023-02-02T06:12:53.154Z,1009.67
2023-02-02T06:13:53.198Z,1009.66
2023-02-02T06:14:53.082Z,1009.71
2023-02-02T06:15:53.123Z,1009.76
2023-02-02T06:16:53.075Z,1009.77
2023-02-02T06:17:52.975Z,1009.75
2023-02-02T06:18:53.781Z,1009.82
2023-02-02T06:19:52.907Z,1009.78
2023-02-02T06:20:52.873Z,1009.74
2023-02-02T06:21:52.947Z,1009.77
2023-02-02T06:22:52.797Z,1009.80
2023-02-02T06:23:52.761Z,1009.76
2023-02-02T06:24:52.755Z,1009.80
2023-02-02T06:25:52.687Z,1009.85
2023-02-02T06:26:52.676Z,1009.80
2023-02-02T06:27:52.687Z,1009.81
2023-02-02T06:28:52.581Z,1009.83
2023-02-02T06:29:52.532Z,1009.84
2023-02-02T06:30:52.635Z,1009.87
2023-02-02T06:31:52.644Z,1009.88
2023-02-02T06:32:52.491Z,1009.88
2023-02-02T06:33:52.425Z,1009.90
2023-02-02T06:34:52.373Z,1009.88
2023-02-02T06:35:52.338Z,1009.93
2023-02-02T06:36:52.285Z,1009.97
2023-02-02T06:37:52.239Z,1009.98
2023-02-02T06:38:52.274Z,1009.96
2023-02-02T06:39:52.172Z,1009.97
2023-02-02T06:40:52.133Z,1010.03
2023-02-02T06:41:52.169Z,1010.05
2023-02-02T06:42:52.098Z,1010.05
2023-02-02T06:43:52.032Z,1010.01
2023-02-02T06:44:52.050Z,1010.06
2023-02-02T06:45:51.951Z,1010.06
2023-02-02T06:46:51.912Z,1010.09
2023-02-02T06:47:52.016Z,1010.10
2023-02-02T06:48:51.838Z,1010.10
2023-02-02T06:49:51.819Z,1010.13
2023-02-02T06:50:51.823Z,1010.12
2023-02-02T06:51:51.749Z,1010.09
2023-02-02T06:52:51.700Z,1010.12
2023-02-02T06:53:51.668Z,1010.12
2023-02-02T06:54:51.625Z,1010.12
2023-02-02T06:55:51.653Z,1010.19
2023-02-02T06:56:51.559Z,1010.13
2023-02-02T06:57:51.549Z,1010.23
2023-02-02T06:58:51.558Z,1010.17
2023-02-02T06:59:51.432Z,1010.14
2023-02-02T07:00:51.402Z,1010.16
2023-02-02T07:01:51.466Z,1010.27
2023-02-02T07:02:51.362Z,1010.27
2023-02-02T07:03:51.438Z,1010.25
2023-02-02T07:04:51.292Z,1010.26
2023-02-02T07:05:51.226Z,1010.25
2023-02-02T07:06:51.181Z,1010.28
2023-02-02T07:07:51.219Z,1010.26
2023-02-02T07:09:01.057Z,1010.30
2023-02-02T07:09:58.324Z,1010.30
2023-02-02T07:11:12.001Z,1010.32
2023-02-02T07:11:51.008Z,1010.37
2023-02-02T07:12:50.969Z,1010.34
2023-02-02T07:13:50.994Z,1010.41
2023-02-02T07:14:50.891Z,1010.46
2023-02-02T07:15:50.899Z,1010.43
2023-02-02T07:16:50.824Z,1010.36
2023-02-02T07:17:50.788Z,1010.44
2023-02-02T07:18:50.748Z,1010.53
2023-02-02T07:19:50.788Z,1010.53
2023-02-02T07:20:50.690Z,1010.51
2023-02-02T07:21:50.660Z,1010.55
2023-02-02T07:22:50.617Z,1010.49
2023-02-02T07:23:50.614Z,1010.55
2023-02-02T07:24:50.582Z,1010.56
2023-02-02T07:25:50.552Z,1010.57
2023-02-02T07:26:50.493Z,1010.58
2023-02-02T07:27:50.431Z,1010.66
2023-02-02T07:28:50.386Z,1010.66
2023-02-02T07:29:50.362Z,1010.64
2023-02-02T07:30:50.951Z,1010.65
2023-02-02T07:31:50.301Z,1010.71
2023-02-02T07:32:50.352Z,1010.74
2023-02-02T07:33:50.219Z,1010.77
2023-02-02T07:34:50.164Z,1010.76
2023-02-02T07:35:50.136Z,1010.78
2023-02-02T07:36:50.156Z,1010.79
2023-02-02T07:37:50.062Z,1010.79
2023-02-02T07:38:50.038Z,1010.82
2023-02-02T07:39:49.989Z,1010.79
2023-02-02T07:40:49.944Z,1010.90
2023-02-02T07:41:49.929Z,1010.90
2023-02-02T07:42:49.999Z,1010.90
2023-02-02T07:43:49.843Z,1010.92
2023-02-02T07:44:49.806Z,1010.88
2023-02-02T07:45:49.775Z,1011.00
2023-02-02T07:46:49.813Z,1011.00
2023-02-02T07:47:49.698Z,1011.00
2023-02-02T07:48:49.719Z,1010.96
2023-02-02T07:49:49.649Z,1010.97
2023-02-02T07:50:49.596Z,1011.01
2023-02-02T07:51:49.551Z,1011.04
2023-02-02T07:52:49.524Z,1011.09
2023-02-02T07:53:49.476Z,1011.10
2023-02-02T07:54:49.497Z,1011.12
2023-02-02T07:55:49.429Z,1011.07
2023-02-02T07:56:49.373Z,1011.23
2023-02-02T07:57:49.347Z,1011.14
2023-02-02T07:58:49.298Z,1011.16
2023-02-02T07:59:49.754Z,1011.15
2023-02-02T08:00:49.318Z,1011.15
2023-02-02T08:01:49.275Z,1011.22
2023-02-02T08:02:49.247Z,1011.19
2023-02-02T08:03:49.118Z,1011.19
2023-02-02T08:04:49.086Z,1011.24
2023-02-02T08:05:49.040Z,1011.25
2023-02-02T08:06:49.093Z,1011.26
2023-02-02T08:07:48.970Z,1011.27
2023-02-02T08:08:56.152Z,1011.25
2023-02-02T08:09:48.900Z,1011.28
2023-02-02T08:10:48.865Z,1011.37
2023-02-02T08:11:48.833Z,1011.31
2023-02-02T08:12:48.887Z,1011.40
2023-02-02T08:13:48.780Z,1011.45
2023-02-02T08:14:48.744Z,1011.37
2023-02-02T08:15:48.715Z,1011.37
2023-02-02T08:16:48.700Z,1011.37
2023-02-02T08:17:48.616Z,1011.47
2023-02-02T08:18:48.638Z,1011.32
2023-02-02T08:19:48.548Z,1011.44
2023-02-02T08:20:48.510Z,1011.48
2023-02-02T08:21:48.476Z,1011.48
2023-02-02T08:22:48.428Z,1011.47
2023-02-02T08:23:48.432Z,1011.50
2023-02-02T08:24:48.445Z,1011.54
2023-02-02T08:25:48.339Z,1011.62
2023-02-02T08:26:48.338Z,1011.55
2023-02-02T08:27:48.259Z,1011.59
2023-02-02T08:28:48.230Z,1011.59
2023-02-02T08:29:48.179Z,1011.60
2023-02-02T08:30:48.248Z,1011.63
2023-02-02T08:31:48.128Z,1011.63
2023-02-02T08:32:48.085Z,1011.68
2023-02-02T08:33:48.089Z,1011.69
2023-02-02T08:34:48.003Z,1011.79
2023-02-02T08:35:47.967Z,1011.76
2023-02-02T08:36:47.979Z,1011.78
2023-02-02T08:37:47.892Z,1011.80
2023-02-02T08:38:47.851Z,1011.84
2023-02-02T08:39:47.829Z,1011.81
2023-02-02T08:40:47.811Z,1011.78
2023-02-02T08:41:47.762Z,1011.80
2023-02-02T08:42:47.767Z,1011.83
2023-02-02T08:43:47.688Z,1011.85
2023-02-02T08:46:02.797Z,1011.86
2023-02-02T08:46:07.771Z,1011.80
2023-02-02T08:46:47.699Z,1011.93
2023-02-02T08:47:48.354Z,1011.91
2023-02-02T08:48:47.733Z,1011.90
2023-02-02T08:49:48.268Z,1011.89
2023-02-02T08:50:47.496Z,1011.80
2023-02-02T08:51:47.393Z,1011.87
2023-02-02T08:52:47.361Z,1011.86
2023-02-02T08:53:47.318Z,1011.96
2023-02-02T08:54:47.337Z,1011.94
2023-02-02T08:55:47.251Z,1011.92
2023-02-02T08:56:47.207Z,1012.01
2023-02-02T08:57:47.206Z,1011.97
2023-02-02T08:58:47.202Z,1011.97
2023-02-02T08:59:47.102Z,1011.97
2023-02-02T09:00:47.159Z,1012.00
2023-02-02T09:01:47.035Z,1012.02
2023-02-02T09:02:46.989Z,1011.97
2023-02-02T09:03:46.971Z,1011.95
2023-02-02T09:04:46.920Z,1011.98
2023-02-02T09:05:46.897Z,1011.99
2023-02-02T09:06:47.766Z,1011.98
2023-02-02T09:07:47.247Z,1011.94
2023-02-02T09:08:46.889Z,1011.96
2023-02-02T09:09:46.745Z,1011.98
2023-02-02T09:10:46.708Z,1011.95
2023-02-02T09:11:46.671Z,1011.94
2023-02-02T09:12:46.701Z,1011.98
2023-02-02T09:13:46.602Z,1012.00
2023-02-02T09:14:46.597Z,1012.05
2023-02-02T09:15:46.538Z,1011.96
2023-02-02T09:16:46.560Z,1011.96
2023-02-02T09:17:46.469Z,1012.04
2023-02-02T09:18:46.464Z,1012.01
2023-02-02T09:19:46.386Z,1012.06
2023-02-02T09:20:48.164Z,1012.07
2023-02-02T09:21:46.318Z,1012.11
2023-02-02T09:22:46.286Z,1012.11
2023-02-02T09:23:46.243Z,1012.17
2023-02-02T09:24:46.329Z,1012.21
2023-02-02T09:25:46.177Z,1012.28
2023-02-02T09:26:46.224Z,1012.21
2023-02-02T09:27:46.103Z,1012.36
2023-02-02T09:28:46.079Z,1012.21
2023-02-02T09:29:46.035Z,1012.20
2023-02-02T09:30:46.083Z,1012.18
2023-02-02T09:31:46.693Z,1012.17
2023-02-02T09:32:45.922Z,1012.31
2023-02-02T09:33:45.891Z,1012.27
2023-02-02T09:34:45.852Z,1012.31
2023-02-02T09:35:45.819Z,1012.29
2023-02-02T09:36:45.829Z,1012.25
2023-02-02T09:37:45.761Z,1012.38
2023-02-02T09:38:45.722Z,1012.38
2023-02-02T09:39:45.677Z,1012.40
2023-02-02T09:40:45.644Z,1012.45
2023-02-02T09:41:45.629Z,1012.42
2023-02-02T09:42:45.624Z,1012.47
2023-02-02T09:43:45.552Z,1012.47
2023-02-02T09:44:45.531Z,1012.51
2023-02-02T09:45:45.520Z,1012.55
2023-02-02T09:46:45.446Z,1012.55
2023-02-02T09:47:45.484Z,1012.56
2023-02-02T09:48:45.386Z,1012.64
2023-02-02T09:49:45.332Z,1012.63
2023-02-02T09:50:45.311Z,1012.69
2023-02-02T09:51:45.263Z,1012.64
2023-02-02T09:52:45.288Z,1012.59
2023-02-02T09:53:55.267Z,1012.50
2023-02-02T09:54:45.162Z,1012.56
2023-02-02T09:55:45.122Z,1012.58
2023-02-02T09:56:45.143Z,1012.61
2023-02-02T09:57:45.049Z,1012.61
2023-02-02T09:58:45.112Z,1012.70
2023-02-02T09:59:45.000Z,1012.60
2023-02-02T10:00:44.943Z,1012.67
2023-02-02T10:01:45.037Z,1012.62
2023-02-02T10:02:44.937Z,1012.65
2023-02-02T10:03:44.876Z,1012.63
2023-02-02T10:04:44.807Z,1012.71
2023-02-02T10:05:44.851Z,1012.74
2023-02-02T10:06:44.809Z,1012.69
2023-02-02T10:07:44.698Z,1012.69
2023-02-02T10:08:44.722Z,1012.63
2023-02-02T10:09:44.629Z,1012.73
2023-02-02T10:10:44.590Z,1012.66
2023-02-02T10:11:44.553Z,1012.74
2023-02-02T10:12:44.512Z,1012.84
2023-02-02T10:13:44.477Z,1012.84
2023-02-02T10:14:44.525Z,1012.70
2023-02-02T10:15:44.559Z,1012.66
2023-02-02T10:16:44.389Z,1012.77
2023-02-02T10:17:44.374Z,1012.62
2023-02-02T10:18:44.311Z,1012.65
2023-02-02T10:19:44.288Z,1012.68
2023-02-02T10:20:44.318Z,1012.76
2023-02-02T10:21:44.199Z,1012.72
2023-02-02T10:22:44.783Z,1012.68
2023-02-02T10:23:44.135Z,1012.76
2023-02-02T10:24:44.104Z,1012.71
2023-02-02T10:25:44.061Z,1012.91
2023-02-02T10:26:44.187Z,1012.83
2023-02-02T10:27:46.287Z,1012.80
2023-02-02T10:28:43.961Z,1012.78
2023-02-02T10:29:49.156Z,1012.71
2023-02-02T10:30:43.950Z,1012.74
2023-02-02T10:31:44.026Z,1012.75
2023-02-02T10:32:43.948Z,1012.79
2023-02-02T10:33:43.799Z,1012.92
2023-02-02T10:34:43.808Z,1012.88
2023-02-02T10:35:43.710Z,1012.96
2023-02-02T10:36:43.675Z,1012.96
2023-02-02T10:37:43.651Z,1012.80
2023-02-02T10:38:43.610Z,1013.00
2023-02-02T10:39:43.650Z,1012.85
2023-02-02T10:40:43.538Z,1012.93
2023-02-02T10:41:43.504Z,1013.04
2023-02-02T10:42:43.482Z,1012.93
2023-02-02T10:43:43.440Z,1012.94
2023-02-02T10:44:43.457Z,1012.99
2023-02-02T10:45:43.363Z,1013.07
2023-02-02T10:46:43.346Z,1013.18
2023-02-02T10:47:43.294Z,1013.09
2023-02-02T10:48:43.268Z,1013.16
2023-02-02T10:49:43.297Z,1013.21
2023-02-02T10:50:43.324Z,1013.15
2023-02-02T10:51:43.173Z,1013.21
2023-02-02T10:52:43.134Z,1013.16
2023-02-02T10:53:43.102Z,1013.18
2023-02-02T10:54:56.002Z,1013.15
2023-02-02T10:55:43.021Z,1013.13
2023-02-02T10:56:43.191Z,1013.14
2023-02-02T10:57:42.945Z,1013.19
2023-02-02T10:58:42.912Z,1013.23
2023-02-02T10:59:42.876Z,1013.28
2023-02-02T11:00:42.843Z,1013.25
2023-02-02T11:01:42.899Z,1013.21
2023-02-02T11:02:42.840Z,1013.26
2023-02-02T11:03:42.732Z,1013.20
2023-02-02T11:04:42.706Z,1013.24
2023-02-02T11:05:42.680Z,1013.24
2023-02-02T11:06:42.640Z,1013.30
2023-02-02T11:07:42.644Z,1013.26
2023-02-02T11:08:42.613Z,1013.31
2023-02-02T11:09:42.534Z,1013.39
2023-02-02T11:10:42.499Z,1013.33
2023-02-02T11:11:42.530Z,1013.47
2023-02-02T11:12:42.424Z,1013.52
2023-02-02T11:13:42.442Z,1013.41
2023-02-02T11:14:45.612Z,1013.42
2023-02-02T11:15:42.355Z,1013.44
2023-02-02T11:16:44.265Z,1013.43
2023-02-02T11:17:42.245Z,1013.49
2023-02-02T11:18:44.093Z,1013.49
2023-02-02T11:19:42.182Z,1013.53
2023-02-02T11:20:42.144Z,1013.59
2023-02-02T11:21:42.198Z,1013.46
2023-02-02T11:22:42.109Z,1013.48
2023-02-02T11:23:42.821Z,1013.48
2023-02-02T11:24:42.687Z,1013.62
2023-02-02T11:25:43.690Z,1013.65
2023-02-02T11:26:42.095Z,1013.62
2023-02-02T11:27:42.378Z,1013.59
2023-02-02T11:28:41.866Z,1013.61
2023-02-02T11:29:41.837Z,1013.71
2023-02-02T11:30:41.914Z,1013.57
2023-02-02T11:31:42.344Z,1013.68
2023-02-02T11:32:42.081Z,1013.65
2023-02-02T11:33:41.702Z,1013.55
2023-02-02T11:34:41.672Z,1013.67
2023-02-02T11:35:42.191Z,1013.76
2023-02-02T11:36:41.591Z,1013.74
2023-02-02T11:37:41.573Z,1013.71
2023-02-02T11:38:42.191Z,1013.69
2023-02-02T11:39:41.494Z,1013.84
2023-02-02T11:40:41.465Z,1013.74
2023-02-02T11:41:41.609Z,1013.80
2023-02-02T11:42:41.397Z,1013.70
2023-02-02T11:43:41.394Z,1013.67
2023-02-02T11:44:41.387Z,1013.63
2023-02-02T11:45:41.300Z,1013.74
2023-02-02T11:46:41.257Z,1013.76
2023-02-02T11:47:41.230Z,1013.82
2023-02-02T11:48:41.177Z,1013.76
2023-02-02T11:49:41.160Z,1013.79
2023-02-02T11:50:41.224Z,1013.93
2023-02-02T11:51:42.699Z,1013.82
2023-02-02T11:52:41.069Z,1013.70
2023-02-02T11:53:41.017Z,1013.67
2023-02-02T11:54:41.001Z,1013.67
2023-02-02T11:55:40.941Z,1013.71
2023-02-02T11:56:40.986Z,1013.68
2023-02-02T11:57:40.884Z,1013.71
2023-02-02T11:58:40.948Z,1013.69
2023-02-02T11:59:40.853Z,1013.66
2023-02-02T12:00:40.771Z,1013.75
2023-02-02T12:01:40.841Z,1013.70
2023-02-02T12:02:40.691Z,1013.72
2023-02-02T12:03:40.696Z,1013.74
2023-02-02T12:04:40.708Z,1013.71